createdAt,value
2022-12-24T00:02:18.286Z,5.70
2022-12-24T00:07:34.677Z,5.10
2022-12-24T00:12:36.603Z,5.35
2022-12-24T00:17:38.036Z,4.18
2022-12-24T00:22:39.493Z,3.85
2022-12-24T00:27:40.960Z,4.00
2022-12-24T00:32:42.443Z,3.95
2022-12-24T00:37:46.698Z,4.35
2022-12-24T00:42:48.147Z,3.95
2022-12-24T00:47:49.607Z,5.03
2022-12-24T00:52:51.106Z,4.53
2022-12-24T00:57:52.531Z,4.25
2022-12-24T01:02:54.111Z,4.85
2022-12-24T01:07:55.684Z,4.90
2022-12-24T01:12:57.148Z,5.53
2022-12-24T01:17:59.152Z,7.10
2022-12-24T01:23:00.615Z,4.63
2022-12-24T01:28:02.015Z,4.90
2022-12-24T01:33:03.489Z,5.63
2022-12-24T01:38:04.931Z,5.70
2022-12-24T01:43:23.468Z,6.63
2022-12-24T01:48:31.937Z,6.28
2022-12-24T01:53:34.763Z,5.32
2022-12-24T01:58:36.940Z,5.03
2022-12-24T02:03:38.535Z,4.93
2022-12-24T02:08:40.300Z,6.03
2022-12-24T02:13:46.266Z,5.80
2022-12-24T02:18:57.337Z,5.20
2022-12-24T02:24:10.776Z,5.55
2022-12-24T02:29:31.254Z,5.15
2022-12-24T02:34:32.701Z,4.65
2022-12-24T02:40:06.097Z,4.82
2022-12-24T02:45:13.349Z,5.53
2022-12-24T02:50:15.924Z,4.68
2022-12-24T02:55:17.339Z,5.80
2022-12-24T03:00:19.546Z,5.47
2022-12-24T03:05:34.287Z,5.72
2022-12-24T03:10:47.968Z,5.88
2022-12-24T03:15:50.115Z,4.93
2022-12-24T03:20:58.143Z,4.40
2022-12-24T03:26:00.695Z,4.32
2022-12-24T03:31:04.327Z,5.50
2022-12-24T03:36:06.685Z,4.22
2022-12-24T03:41:08.269Z,5.20
2022-12-24T03:46:09.910Z,5.63
2022-12-24T03:51:18.964Z,4.95
2022-12-24T03:56:21.280Z,4.57
2022-12-24T04:01:23.114Z,5.28
2022-12-24T04:06:24.693Z,5.65
2022-12-24T04:11:26.219Z,4.93
2022-12-24T04:16:27.710Z,4.85
2022-12-24T04:21:29.326Z,5.32
2022-12-24T04:26:30.746Z,4.38
2022-12-24T04:31:32.214Z,4.03
2022-12-24T04:36:33.778Z,6.43
2022-12-24T04:41:53.782Z,5.35
2022-12-24T04:46:55.224Z,5.97
2022-12-24T04:51:56.666Z,4.22
2022-12-24T04:56:58.183Z,4.72
2022-12-24T05:01:59.792Z,4.07
2022-12-24T05:07:01.379Z,5.35
2022-12-24T05:12:02.815Z,5.47
2022-12-24T05:17:04.332Z,5.30
2022-12-24T05:22:24.494Z,3.67
2022-12-24T05:27:26.079Z,5.22
2022-12-24T05:32:28.713Z,4.45
2022-12-24T05:37:30.177Z,4.38
2022-12-24T05:42:31.631Z,4.80
2022-12-24T05:47:38.137Z,4.35
2022-12-24T05:52:42.746Z,5.18
2022-12-24T05:57:44.209Z,4.57
2022-12-24T06:02:45.709Z,4.72
2022-12-24T06:07:47.272Z,5.15
2022-12-24T06:12:48.723Z,4.93
2022-12-24T06:17:50.591Z,5.00
2022-12-24T06:22:52.053Z,4.70
2022-12-24T06:27:53.509Z,4.60
2022-12-24T06:32:54.927Z,4.88
2022-12-24T06:37:56.358Z,4.93
2022-12-24T06:42:57.910Z,4.57
2022-12-24T06:48:00.445Z,5.40
2022-12-24T06:53:01.927Z,5.28
2022-12-24T06:58:03.653Z,4.93
2022-12-24T07:03:05.186Z,4.85
2022-12-24T07:08:06.651Z,4.63
2022-12-24T07:13:08.107Z,4.20
2022-12-24T07:18:09.597Z,5.15
2022-12-24T07:23:11.023Z,5.25
2022-12-24T07:28:12.593Z,4.60
2022-12-24T07:33:14.211Z,4.50
2022-12-24T07:38:15.691Z,4.60
2022-12-24T07:43:17.135Z,5.22
2022-12-24T07:48:18.622Z,5.75
2022-12-24T07:53:20.462Z,6.22
2022-12-24T07:58:22.423Z,4.28
2022-12-24T08:03:23.954Z,4.63
2022-12-24T08:08:25.432Z,5.00
2022-12-24T08:13:26.880Z,6.10
2022-12-24T08:18:28.385Z,5.40
2022-12-24T08:23:29.954Z,5.72
2022-12-24T08:28:31.406Z,4.70
2022-12-24T08:33:32.884Z,5.88
2022-12-24T08:38:34.278Z,4.20
2022-12-24T08:43:36.128Z,4.88
2022-12-24T08:48:37.712Z,4.32
2022-12-24T08:53:39.660Z,3.97
2022-12-24T08:58:41.517Z,4.78
2022-12-24T09:03:43.215Z,5.90
2022-12-24T09:08:44.791Z,4.75
2022-12-24T09:13:46.537Z,5.18
2022-12-24T09:18:47.955Z,5.15
2022-12-24T09:23:49.492Z,4.63
2022-12-24T09:28:51.425Z,5.15
2022-12-24T09:33:53.209Z,5.55
2022-12-24T09:38:54.687Z,5.28
2022-12-24T09:43:58.967Z,5.88
2022-12-24T09:49:06.218Z,4.80
2022-12-24T09:54:29.250Z,6.18
2022-12-24T09:59:41.743Z,4.15
2022-12-24T10:04:43.950Z,5.68
2022-12-24T10:10:00.451Z,4.70
2022-12-24T10:15:01.927Z,5.65
2022-12-24T10:20:21.877Z,4.55
2022-12-24T10:25:29.495Z,5.05
2022-12-24T10:30:31.053Z,4.53
2022-12-24T10:35:35.016Z,4.82
2022-12-24T10:40:36.457Z,4.57
2022-12-24T10:45:40.385Z,5.03
2022-12-24T10:50:45.741Z,5.43
2022-12-24T10:55:48.113Z,4.80
2022-12-24T11:00:50.936Z,5.30
2022-12-24T11:06:06.215Z,5.05
2022-12-24T11:11:09.227Z,6.22
2022-12-24T11:16:17.317Z,5.45
2022-12-24T11:21:19.823Z,4.90
2022-12-24T11:26:22.022Z,5.10
2022-12-24T11:31:24.695Z,5.03
2022-12-24T11:36:27.740Z,3.80
2022-12-24T11:41:36.470Z,4.38
2022-12-24T11:46:39.471Z,4.63
2022-12-24T11:51:46.278Z,4.40
2022-12-24T11:56:49.528Z,3.97
2022-12-24T12:01:54.649Z,4.10
2022-12-24T12:07:15.524Z,3.88
2022-12-24T12:12:27.578Z,4.65
2022-12-24T12:17:47.548Z,3.92
2022-12-24T12:22:52.094Z,3.55
2022-12-24T12:27:55.735Z,3.50
2022-12-24T12:33:00.401Z,3.33
2022-12-24T12:38:06.091Z,3.30
2022-12-24T12:43:32.817Z,3.22
2022-12-24T12:48:34.255Z,2.97
2022-12-24T12:53:41.519Z,3.90
2022-12-24T12:58:49.689Z,3.03
2022-12-24T13:04:02.277Z,3.63
2022-12-24T13:09:09.621Z,4.30
2022-12-24T13:14:16.803Z,3.45
2022-12-24T13:19:38.008Z,3.78
2022-12-24T13:24:39.817Z,3.90
2022-12-24T13:29:43.319Z,3.58
2022-12-24T13:34:47.846Z,3.42
2022-12-24T13:40:08.147Z,4.13
2022-12-24T13:45:42.723Z,3.45
2022-12-24T13:50:44.157Z,3.75
2022-12-24T13:55:54.051Z,3.70
2022-12-24T14:01:06.382Z,3.40
2022-12-24T14:06:28.219Z,3.60
2022-12-24T14:11:37.744Z,3.80
2022-12-24T14:21:49.268Z,4.55
2022-12-24T14:31:53.392Z,3.72
2022-12-24T14:36:55.798Z,3.70
2022-12-24T14:42:07.640Z,3.78
2022-12-24T14:47:16.738Z,4.43
2022-12-24T14:58:13.615Z,4.68
2022-12-24T15:03:16.477Z,3.50
2022-12-24T15:08:19.528Z,4.55
2022-12-24T15:13:20.922Z,3.65
2022-12-24T15:18:28.085Z,4.45
2022-12-24T15:23:31.270Z,5.30
2022-12-24T15:28:36.769Z,4.03
2022-12-24T15:33:38.574Z,4.00
2022-12-24T15:38:40.905Z,4.53
2022-12-24T15:43:44.327Z,4.05
2022-12-24T15:48:46.164Z,4.82
2022-12-24T15:53:49.243Z,5.43
2022-12-24T15:58:50.681Z,5.30
2022-12-24T16:03:52.955Z,6.25
2022-12-24T16:08:56.427Z,5.63
2022-12-24T16:14:06.927Z,6.03
2022-12-24T16:19:16.341Z,6.00
2022-12-24T16:24:20.816Z,5.18
2022-12-24T16:29:25.203Z,4.65
2022-12-24T16:34:28.491Z,5.80
2022-12-24T16:39:31.990Z,5.93
2022-12-24T16:44:33.473Z,5.68
2022-12-24T16:49:36.394Z,5.53
2022-12-24T16:54:37.789Z,5.75
2022-12-24T16:59:40.090Z,5.72
2022-12-24T17:04:41.748Z,7.85
2022-12-24T17:09:43.257Z,7.35
2022-12-24T17:14:44.753Z,8.18
2022-12-24T17:19:46.242Z,6.07
2022-12-24T17:24:47.746Z,5.57
2022-12-24T17:29:49.580Z,5.20
2022-12-24T17:34:51.049Z,4.72
2022-12-24T17:39:52.667Z,6.05
2022-12-24T17:44:54.163Z,5.63
2022-12-24T17:49:55.671Z,5.80
2022-12-24T17:54:57.225Z,5.60
2022-12-24T17:59:58.720Z,6.30
2022-12-24T18:05:00.225Z,6.93
2022-12-24T18:10:01.760Z,6.53
2022-12-24T18:15:03.298Z,6.90
2022-12-24T18:20:05.209Z,6.88
2022-12-24T18:25:06.816Z,6.68
2022-12-24T18:30:08.675Z,5.70
2022-12-24T18:35:10.658Z,7.30
2022-12-24T18:40:12.304Z,6.38
2022-12-24T18:45:13.743Z,6.40
2022-12-24T18:50:15.199Z,7.57
2022-12-24T18:55:16.730Z,6.72
2022-12-24T19:00:18.344Z,7.30
2022-12-24T19:05:19.753Z,8.32
2022-12-24T19:10:21.194Z,7.13
2022-12-24T19:15:22.633Z,8.63
2022-12-24T19:20:24.059Z,8.77
2022-12-24T19:25:25.530Z,8.85
2022-12-24T19:30:27.048Z,9.02
2022-12-24T19:35:29.114Z,7.85
2022-12-24T19:40:30.899Z,9.52
2022-12-24T19:45:32.497Z,9.10
2022-12-24T19:50:34.007Z,9.13
2022-12-24T19:55:35.854Z,8.57
2022-12-24T20:00:37.386Z,9.18
2022-12-24T20:05:41.891Z,9.77
2022-12-24T20:10:44.200Z,10.15
2022-12-24T20:15:45.653Z,10.68
2022-12-24T20:20:47.115Z,11.60
2022-12-24T20:25:48.973Z,11.32
2022-12-24T20:30:50.390Z,13.07
2022-12-24T20:35:52.004Z,12.30
2022-12-24T20:40:55.550Z,11.88
2022-12-24T20:45:57.331Z,11.23
2022-12-24T20:50:59.147Z,13.13
2022-12-24T20:56:01.417Z,12.48
2022-12-24T21:01:08.063Z,13.02
2022-12-24T21:06:10.357Z,12.35
2022-12-24T21:11:30.629Z,14.30
2022-12-24T21:21:34.825Z,13.70
2022-12-24T21:26:36.677Z,14.88
2022-12-24T21:31:38.233Z,13.32
2022-12-24T21:36:39.645Z,13.35
2022-12-24T21:41:41.119Z,14.98
2022-12-24T21:46:42.662Z,14.20
2022-12-24T21:51:46.645Z,13.70
2022-12-24T21:57:06.900Z,15.48
2022-12-24T22:07:39.146Z,14.48
2022-12-24T22:17:41.926Z,16.08
2022-12-24T22:22:43.366Z,15.27
2022-12-24T22:27:44.851Z,15.18
2022-12-24T22:32:46.512Z,14.63
2022-12-24T22:37:47.943Z,15.20
2022-12-24T22:42:49.380Z,14.20
2022-12-24T22:47:50.887Z,15.15
2022-12-24T22:52:53.872Z,15.15
2022-12-24T22:57:55.439Z,14.63
2022-12-24T23:02:57.000Z,13.15
2022-12-24T23:07:58.527Z,13.25
2022-12-24T23:13:18.549Z,15.95
2022-12-24T23:23:21.516Z,13.75
2022-12-24T23:28:22.947Z,15.23
2022-12-24T23:33:24.972Z,13.75
2022-12-24T23:38:26.475Z,14.20
2022-12-24T23:43:28.231Z,14.75
2022-12-24T23:48:29.748Z,15.35
2022-12-24T23:53:31.272Z,14.40
2022-12-24T23:58:32.823Z,15.40
